Terminal Aerodrome Forecast
Issued by NWS

Home | Current Version | Previous Version | Text Only | Print | Product List | Glossary On
Versions: 1 2 3 4 5 6 7 8 9 10 11 12 13 14 15 16 17 18 19 20 21 22 23 24
059
FTAK31 PAFA 220523
TAFAGA
TAF
PAGA 220523Z 2206/2306 15003KT P6SM FEW100 SCT200
     FM222000 25008G14KT P6SM SCT040 BKN200=

USA.gov is the U.S. government's official web portal to all federal, state and local government web resources and services.